createdAt,value
2023-03-17T00:00:30.687Z,996.34
2023-03-17T00:01:30.534Z,996.34
2023-03-17T00:02:30.571Z,996.32
2023-03-17T00:03:30.556Z,996.35
2023-03-17T00:04:30.525Z,996.33
2023-03-17T00:05:30.513Z,996.36
2023-03-17T00:06:30.529Z,996.37
2023-03-17T00:07:30.500Z,996.35
2023-03-17T00:08:30.486Z,996.36
2023-03-17T00:09:30.521Z,996.29
2023-03-17T00:10:30.640Z,996.32
2023-03-17T00:11:30.472Z,996.34
2023-03-17T00:12:30.540Z,996.36
2023-03-17T00:13:30.473Z,996.32
2023-03-17T00:14:30.466Z,996.34
2023-03-17T00:15:30.439Z,996.37
2023-03-17T00:16:30.435Z,996.40
2023-03-17T00:17:30.417Z,996.30
2023-03-17T00:18:30.436Z,996.33
2023-03-17T00:19:30.454Z,996.32
2023-03-17T00:20:30.657Z,996.25
2023-03-17T00:21:30.421Z,996.30
2023-03-17T00:22:30.404Z,996.29
2023-03-17T00:23:30.380Z,996.35
2023-03-17T00:24:30.452Z,996.33
2023-03-17T00:25:30.376Z,996.37
2023-03-17T00:26:30.376Z,996.38
2023-03-17T00:27:30.395Z,996.38
2023-03-17T00:28:30.361Z,996.32
2023-03-17T00:29:30.363Z,996.28
2023-03-17T00:30:30.587Z,996.28
2023-03-17T00:31:30.410Z,996.32
2023-03-17T00:32:30.366Z,996.31
2023-03-17T00:33:30.325Z,996.31
2023-03-17T00:34:30.361Z,996.31
2023-03-17T00:35:30.388Z,996.29
2023-03-17T00:36:30.310Z,996.30
2023-03-17T00:37:30.286Z,996.28
2023-03-17T00:38:30.314Z,996.18
2023-03-17T00:39:30.287Z,996.24
2023-03-17T00:40:30.541Z,996.21
2023-03-17T00:41:30.285Z,996.27
2023-03-17T00:42:30.275Z,996.28
2023-03-17T00:43:30.756Z,996.29
2023-03-17T00:44:31.240Z,996.24
2023-03-17T00:45:30.230Z,996.28
2023-03-17T00:46:30.277Z,996.20
2023-03-17T00:47:30.232Z,996.15
2023-03-17T00:48:30.268Z,996.11
2023-03-17T00:49:30.194Z,996.14
2023-03-17T00:50:30.437Z,996.12
2023-03-17T00:51:30.227Z,996.13
2023-03-17T00:52:30.190Z,996.19
2023-03-17T00:53:30.202Z,996.30
2023-03-17T00:54:31.222Z,996.26
2023-03-17T00:55:30.209Z,996.26
2023-03-17T00:56:30.184Z,996.31
2023-03-17T00:57:30.188Z,996.24
2023-03-17T00:58:30.159Z,996.31
2023-03-17T00:59:30.161Z,996.30
2023-03-17T01:00:30.480Z,996.34
2023-03-17T01:01:30.149Z,996.34
2023-03-17T01:02:30.116Z,996.26
2023-03-17T01:03:30.138Z,996.27
2023-03-17T01:04:30.137Z,996.22
2023-03-17T01:05:30.148Z,996.23
2023-03-17T01:06:30.087Z,996.25
2023-03-17T01:07:30.117Z,996.21
2023-03-17T01:08:30.204Z,996.26
2023-03-17T01:09:30.088Z,996.24
2023-03-17T01:10:30.247Z,996.21
2023-03-17T01:11:30.103Z,996.20
2023-03-17T01:12:30.102Z,996.16
2023-03-17T01:13:30.055Z,996.05
2023-03-17T01:14:30.058Z,996.04
2023-03-17T01:15:30.056Z,995.93
2023-03-17T01:16:30.141Z,995.91
2023-03-17T01:17:30.054Z,995.91
2023-03-17T01:18:30.183Z,995.88
2023-03-17T01:19:30.037Z,995.99
2023-03-17T01:20:30.189Z,996.03
2023-03-17T01:21:30.023Z,996.00
2023-03-17T01:22:30.037Z,995.93
2023-03-17T01:23:30.050Z,995.91
2023-03-17T01:24:30.905Z,995.95
2023-03-17T01:25:29.985Z,996.00
2023-03-17T01:26:31.050Z,996.07
2023-03-17T01:27:30.007Z,996.01
2023-03-17T01:28:29.997Z,995.97
2023-03-17T01:29:29.981Z,995.97
2023-03-17T01:30:30.166Z,996.02
2023-03-17T01:31:30.041Z,995.98
2023-03-17T01:32:29.986Z,995.98
2023-03-17T01:33:29.953Z,996.04
2023-03-17T01:34:29.975Z,995.95
2023-03-17T01:35:29.994Z,995.94
2023-03-17T01:36:29.973Z,995.96
2023-03-17T01:37:29.904Z,995.97
2023-03-17T01:38:29.931Z,995.96
2023-03-17T01:39:29.923Z,995.95
2023-03-17T01:40:30.115Z,995.92
2023-03-17T01:41:29.908Z,995.90
2023-03-17T01:42:30.891Z,995.93
2023-03-17T01:43:29.893Z,995.92
2023-03-17T01:44:29.852Z,995.89
2023-03-17T01:45:29.880Z,995.80
2023-03-17T01:46:29.879Z,995.90
2023-03-17T01:47:29.832Z,995.88
2023-03-17T01:48:29.845Z,995.77
2023-03-17T01:49:29.944Z,995.77
2023-03-17T01:50:30.203Z,995.86
2023-03-17T01:51:29.835Z,995.79
2023-03-17T01:52:29.836Z,995.77
2023-03-17T01:53:29.840Z,995.78
2023-03-17T01:54:29.830Z,995.81
2023-03-17T01:55:29.815Z,995.79
2023-03-17T01:56:29.793Z,995.88
2023-03-17T01:57:29.806Z,995.80
2023-03-17T01:58:29.788Z,995.83
2023-03-17T01:59:29.819Z,995.82
2023-03-17T02:00:30.109Z,995.83
2023-03-17T02:01:29.764Z,995.82
2023-03-17T02:02:29.744Z,995.75
2023-03-17T02:03:30.328Z,995.76
2023-03-17T02:04:29.816Z,995.71
2023-03-17T02:05:29.868Z,995.76
2023-03-17T02:06:29.719Z,995.75
2023-03-17T02:07:29.770Z,995.72
2023-03-17T02:08:29.720Z,995.67
2023-03-17T02:09:29.727Z,995.66
2023-03-17T02:10:30.011Z,995.66
2023-03-17T02:11:29.671Z,995.65
2023-03-17T02:12:29.710Z,995.66
2023-03-17T02:13:30.276Z,995.63
2023-03-17T02:14:29.681Z,995.63
2023-03-17T02:15:29.660Z,995.61
2023-03-17T02:16:29.690Z,995.56
2023-03-17T02:17:29.639Z,995.56
2023-03-17T02:18:29.659Z,995.60
2023-03-17T02:19:29.638Z,995.56
2023-03-17T02:20:29.977Z,995.56
2023-03-17T02:21:29.632Z,995.56
2023-03-17T02:22:29.631Z,995.52
2023-03-17T02:23:29.687Z,995.56
2023-03-17T02:24:29.599Z,995.56
2023-03-17T02:25:29.607Z,995.58
2023-03-17T02:26:29.581Z,995.58
2023-03-17T02:27:29.595Z,995.58
2023-03-17T02:28:29.582Z,995.53
2023-03-17T02:29:29.697Z,995.51
2023-03-17T02:30:29.893Z,995.58
2023-03-17T02:31:29.550Z,995.51
2023-03-17T02:32:29.608Z,995.49
2023-03-17T02:33:29.599Z,995.49
2023-03-17T02:34:29.562Z,995.52
2023-03-17T02:35:29.529Z,995.44
2023-03-17T02:36:29.585Z,995.46
2023-03-17T02:37:29.533Z,995.42
2023-03-17T02:38:29.537Z,995.41
2023-03-17T02:39:29.529Z,995.38
2023-03-17T02:40:29.869Z,995.40
2023-03-17T02:41:29.501Z,995.41
2023-03-17T02:42:29.493Z,995.41
2023-03-17T02:43:29.485Z,995.47
2023-03-17T02:44:29.503Z,995.52
2023-03-17T02:45:29.518Z,995.49
2023-03-17T02:46:29.489Z,995.42
2023-03-17T02:47:29.494Z,995.46
2023-03-17T02:48:29.438Z,995.45
2023-03-17T02:49:29.451Z,995.39
2023-03-17T02:50:29.793Z,995.35
2023-03-17T02:51:29.451Z,995.38
2023-03-17T02:52:29.427Z,995.36
2023-03-17T02:53:29.461Z,995.45
2023-03-17T02:54:29.548Z,995.38
2023-03-17T02:55:29.395Z,995.45
2023-03-17T02:56:29.426Z,995.45
2023-03-17T02:57:29.434Z,995.35
2023-03-17T02:58:29.377Z,995.40
2023-03-17T02:59:29.383Z,995.37
2023-03-17T03:00:29.658Z,995.32
2023-03-17T03:01:29.520Z,995.34
2023-03-17T03:02:29.395Z,995.31
2023-03-17T03:03:29.349Z,995.30
2023-03-17T03:04:29.381Z,995.29
2023-03-17T03:05:29.353Z,995.32
2023-03-17T03:06:29.319Z,995.29
2023-03-17T03:07:29.324Z,995.33
2023-03-17T03:08:29.336Z,995.28
2023-03-17T03:09:29.309Z,995.28
2023-03-17T03:10:29.616Z,995.32
2023-03-17T03:11:29.351Z,995.30
2023-03-17T03:12:29.283Z,995.35
2023-03-17T03:13:29.316Z,995.39
2023-03-17T03:14:29.276Z,995.42
2023-03-17T03:15:29.343Z,995.41
2023-03-17T03:16:29.333Z,995.41
2023-03-17T03:17:29.261Z,995.36
2023-03-17T03:18:29.288Z,995.41
2023-03-17T03:19:29.230Z,995.39
2023-03-17T03:20:29.510Z,995.47
2023-03-17T03:21:29.243Z,995.47
2023-03-17T03:22:29.224Z,995.41
2023-03-17T03:23:29.207Z,995.43
2023-03-17T03:24:29.236Z,995.40
2023-03-17T03:25:29.226Z,995.55
2023-03-17T03:26:29.211Z,995.47
2023-03-17T03:27:29.175Z,995.46
2023-03-17T03:28:29.187Z,995.47
2023-03-17T03:29:29.214Z,995.48
2023-03-17T03:30:29.507Z,995.51
2023-03-17T03:31:29.242Z,995.50
2023-03-17T03:32:29.201Z,995.50
2023-03-17T03:33:29.207Z,995.52
2023-03-17T03:34:29.198Z,995.51
2023-03-17T03:35:29.139Z,995.51
2023-03-17T03:36:29.169Z,995.51
2023-03-17T03:37:29.136Z,995.48
2023-03-17T03:38:29.116Z,995.44
2023-03-17T03:39:29.095Z,995.43
2023-03-17T03:40:29.436Z,995.40
2023-03-17T03:41:29.113Z,995.44
2023-03-17T03:42:29.085Z,995.43
2023-03-17T03:43:29.917Z,995.44
2023-03-17T03:44:29.067Z,995.42
2023-03-17T03:45:29.064Z,995.38
2023-03-17T03:46:29.158Z,995.35
2023-03-17T03:47:29.103Z,995.33
2023-03-17T03:48:29.087Z,995.33
2023-03-17T03:49:29.033Z,995.27
2023-03-17T03:50:29.421Z,995.28
2023-03-17T03:51:29.018Z,995.23
2023-03-17T03:52:29.052Z,995.21
2023-03-17T03:53:29.034Z,995.19
2023-03-17T03:54:29.013Z,995.21
2023-03-17T03:55:29.002Z,995.16
2023-03-17T03:56:29.000Z,995.11
2023-03-17T03:57:28.999Z,995.09
2023-03-17T03:58:29.017Z,995.10
2023-03-17T03:59:29.035Z,995.04
2023-03-17T04:00:29.240Z,995.10
2023-03-17T04:01:28.966Z,995.07
2023-03-17T04:02:28.955Z,995.08
2023-03-17T04:03:28.969Z,995.09
2023-03-17T04:04:28.962Z,995.11
2023-03-17T04:05:28.946Z,995.07
2023-03-17T04:06:28.956Z,995.04
2023-03-17T04:07:28.923Z,995.08
2023-03-17T04:08:28.962Z,995.04
2023-03-17T04:09:28.939Z,995.03
2023-03-17T04:10:29.321Z,995.02
2023-03-17T04:11:28.942Z,995.03
2023-03-17T04:12:28.889Z,995.04
2023-03-17T04:13:28.885Z,995.01
2023-03-17T04:14:28.892Z,994.98
2023-03-17T04:15:28.895Z,994.92
2023-03-17T04:16:28.907Z,994.92
2023-03-17T04:17:28.873Z,995.00
2023-03-17T04:18:28.857Z,994.94
2023-03-17T04:19:28.854Z,994.91
2023-03-17T04:20:29.238Z,994.95
2023-03-17T04:21:28.842Z,994.93
2023-03-17T04:22:28.830Z,994.95
2023-03-17T04:23:28.980Z,994.94
2023-03-17T04:24:28.824Z,994.93
2023-03-17T04:25:28.822Z,994.91
2023-03-17T04:26:28.817Z,994.88
2023-03-17T04:27:28.806Z,994.91
2023-03-17T04:28:28.775Z,994.89
2023-03-17T04:29:28.791Z,994.94
2023-03-17T04:30:29.254Z,994.95
2023-03-17T04:31:28.835Z,994.94
2023-03-17T04:32:28.796Z,994.94
2023-03-17T04:33:28.778Z,994.96
2023-03-17T04:34:28.759Z,994.99
2023-03-17T04:35:28.755Z,994.95
2023-03-17T04:36:28.745Z,994.96
2023-03-17T04:37:28.755Z,994.92
2023-03-17T04:38:28.724Z,994.91
2023-03-17T04:39:28.758Z,994.89
2023-03-17T04:40:28.906Z,994.88
2023-03-17T04:41:28.721Z,994.81
2023-03-17T04:42:28.867Z,994.80
2023-03-17T04:43:28.781Z,994.78
2023-03-17T04:44:28.676Z,994.73
2023-03-17T04:45:28.747Z,994.70
2023-03-17T04:46:28.689Z,994.75
2023-03-17T04:47:28.727Z,994.66
2023-03-17T04:48:28.712Z,994.61
2023-03-17T04:49:28.659Z,994.66
2023-03-17T04:50:28.788Z,994.66
2023-03-17T04:51:28.662Z,994.69
2023-03-17T04:52:28.645Z,994.71
2023-03-17T04:53:28.736Z,994.73
2023-03-17T04:54:28.651Z,994.75
2023-03-17T04:55:28.641Z,994.75
2023-03-17T04:56:31.201Z,994.75
2023-03-17T04:57:28.664Z,994.75
2023-03-17T04:58:31.026Z,994.77
2023-03-17T04:59:29.732Z,994.81
2023-03-17T05:00:28.756Z,994.86
2023-03-17T05:01:28.660Z,994.87
2023-03-17T05:02:28.617Z,994.79
2023-03-17T05:03:28.952Z,994.82
2023-03-17T05:04:31.999Z,994.81
2023-03-17T05:05:29.590Z,994.79
2023-03-17T05:06:28.652Z,994.74
2023-03-17T05:07:28.580Z,994.76
2023-03-17T05:08:28.616Z,994.70
2023-03-17T05:09:28.605Z,994.75
2023-03-17T05:10:28.956Z,994.78
2023-03-17T05:11:28.555Z,994.73
2023-03-17T05:12:28.656Z,994.83
2023-03-17T05:13:28.533Z,994.88
2023-03-17T05:14:28.528Z,994.93
2023-03-17T05:15:28.585Z,994.90
2023-03-17T05:16:28.543Z,994.87
2023-03-17T05:17:28.509Z,994.82
2023-03-17T05:18:28.498Z,994.80
2023-03-17T05:19:28.524Z,994.82
2023-03-17T05:20:29.018Z,994.81
2023-03-17T05:21:28.509Z,994.88
2023-03-17T05:22:28.514Z,994.91
2023-03-17T05:23:28.504Z,994.90
2023-03-17T05:24:28.508Z,994.93
2023-03-17T05:25:28.492Z,994.95
2023-03-17T05:26:28.470Z,994.88
2023-03-17T05:27:28.469Z,994.92
2023-03-17T05:28:28.501Z,994.91
2023-03-17T05:29:28.477Z,994.92
2023-03-17T05:30:28.547Z,994.86
2023-03-17T05:31:28.488Z,994.86
2023-03-17T05:32:29.470Z,994.91
2023-03-17T05:33:28.435Z,994.95
2023-03-17T05:34:28.438Z,994.88
2023-03-17T05:35:28.425Z,994.91
2023-03-17T05:36:28.424Z,994.86
2023-03-17T05:37:28.429Z,994.85
2023-03-17T05:38:28.407Z,994.88
2023-03-17T05:39:28.475Z,994.89
2023-03-17T05:40:29.663Z,994.84
2023-03-17T05:41:28.405Z,994.77
2023-03-17T05:42:28.405Z,994.76
2023-03-17T05:43:28.448Z,994.79
2023-03-17T05:44:28.458Z,994.78
2023-03-17T05:45:28.397Z,994.76
2023-03-17T05:46:28.433Z,994.80
2023-03-17T05:47:28.366Z,994.75
2023-03-17T05:48:28.367Z,994.78
2023-03-17T05:49:28.457Z,994.82
2023-03-17T05:50:28.434Z,994.78
2023-03-17T05:51:28.317Z,994.81
2023-03-17T05:52:28.328Z,994.82
2023-03-17T05:53:28.346Z,994.79
2023-03-17T05:54:28.307Z,994.77
2023-03-17T05:55:29.279Z,994.84
2023-03-17T05:56:28.323Z,994.82
2023-03-17T05:57:28.297Z,994.85
2023-03-17T05:58:28.287Z,994.84
2023-03-17T05:59:28.327Z,994.89
2023-03-17T06:00:29.297Z,994.87
2023-03-17T06:01:28.429Z,994.89
2023-03-17T06:02:28.294Z,994.88
2023-03-17T06:03:28.299Z,994.94
2023-03-17T06:04:28.259Z,994.85
2023-03-17T06:05:28.280Z,994.85
2023-03-17T06:06:28.264Z,994.82
2023-03-17T06:07:31.186Z,994.86
2023-03-17T06:08:30.225Z,994.87
2023-03-17T06:09:28.227Z,994.83
2023-03-17T06:10:28.232Z,994.81
2023-03-17T06:11:28.229Z,994.83
2023-03-17T06:12:28.189Z,994.82
2023-03-17T06:13:28.193Z,994.69
2023-03-17T06:14:28.200Z,994.72
2023-03-17T06:15:28.346Z,994.77
2023-03-17T06:16:28.174Z,994.73
2023-03-17T06:17:28.158Z,994.75
2023-03-17T06:18:28.189Z,994.71
2023-03-17T06:19:28.188Z,994.74
2023-03-17T06:20:28.198Z,994.77
2023-03-17T06:21:28.140Z,994.75
2023-03-17T06:22:28.150Z,994.79
2023-03-17T06:23:28.141Z,994.83
2023-03-17T06:24:28.120Z,994.85
2023-03-17T06:25:28.342Z,994.82
2023-03-17T06:26:28.132Z,994.90
2023-03-17T06:27:28.136Z,994.89
2023-03-17T06:28:28.193Z,994.93
2023-03-17T06:29:28.166Z,994.84
2023-03-17T06:30:28.113Z,994.87
2023-03-17T06:31:28.199Z,994.87
2023-03-17T06:32:28.298Z,994.86
2023-03-17T06:33:28.098Z,994.86
2023-03-17T06:34:28.107Z,994.85
2023-03-17T06:35:28.162Z,994.85
2023-03-17T06:36:28.065Z,994.92
2023-03-17T06:37:28.158Z,994.87
2023-03-17T06:38:28.048Z,994.86
2023-03-17T06:39:28.092Z,994.91
2023-03-17T06:40:28.135Z,994.89
2023-03-17T06:41:28.092Z,994.83
2023-03-17T06:42:28.100Z,994.89
2023-03-17T06:43:28.124Z,994.86
2023-03-17T06:44:28.011Z,994.89
2023-03-17T06:45:27.995Z,994.89
2023-03-17T06:46:28.097Z,994.83
2023-03-17T06:47:27.975Z,994.90
2023-03-17T06:48:27.974Z,994.82
2023-03-17T06:49:27.962Z,994.85
2023-03-17T06:50:27.987Z,994.88
2023-03-17T06:51:27.973Z,994.95
2023-03-17T06:52:27.956Z,994.92
2023-03-17T06:53:27.981Z,994.89
2023-03-17T06:54:27.935Z,994.87
2023-03-17T06:55:27.951Z,994.85
2023-03-17T06:56:30.466Z,994.82
2023-03-17T06:57:28.920Z,994.79
2023-03-17T06:58:27.990Z,994.81
2023-03-17T06:59:28.824Z,994.79
2023-03-17T07:00:27.951Z,994.86
2023-03-17T07:01:27.973Z,994.81
2023-03-17T07:02:27.903Z,994.79
2023-03-17T07:03:28.760Z,994.87
2023-03-17T07:04:27.911Z,994.79
2023-03-17T07:05:27.952Z,994.80
2023-03-17T07:06:27.904Z,994.78
2023-03-17T07:07:27.866Z,994.74
2023-03-17T07:08:27.851Z,994.82
2023-03-17T07:09:27.859Z,994.78
2023-03-17T07:10:27.847Z,994.84
2023-03-17T07:11:27.862Z,994.84
2023-03-17T07:12:27.815Z,994.92
2023-03-17T07:13:27.831Z,994.90
2023-03-17T07:14:27.831Z,994.90
2023-03-17T07:15:27.801Z,994.82
2023-03-17T07:16:27.839Z,994.87
2023-03-17T07:17:27.804Z,994.87
2023-03-17T07:18:27.798Z,994.90
2023-03-17T07:19:27.791Z,994.89
2023-03-17T07:20:27.793Z,994.82
2023-03-17T07:21:27.765Z,994.87
2023-03-17T07:22:27.748Z,994.89
2023-03-17T07:23:27.725Z,994.88
2023-03-17T07:24:27.732Z,994.84
2023-03-17T07:25:27.752Z,994.86
2023-03-17T07:26:27.764Z,994.87
2023-03-17T07:27:27.711Z,994.84
2023-03-17T07:28:28.351Z,994.88
2023-03-17T07:29:27.781Z,994.93
2023-03-17T07:30:27.710Z,994.88
2023-03-17T07:31:27.767Z,994.91
2023-03-17T07:32:27.717Z,994.95
2023-03-17T07:33:27.706Z,994.79
2023-03-17T07:34:27.691Z,994.86
2023-03-17T07:35:27.704Z,994.82
2023-03-17T07:36:27.681Z,994.80
2023-03-17T07:37:27.671Z,994.81
2023-03-17T07:38:27.710Z,994.88
2023-03-17T07:39:28.249Z,994.83
2023-03-17T07:40:27.641Z,994.82
2023-03-17T07:41:27.612Z,994.84
2023-03-17T07:42:27.644Z,994.91
2023-03-17T07:43:27.608Z,994.93
2023-03-17T07:44:27.639Z,995.00
2023-03-17T07:45:27.694Z,994.94
2023-03-17T07:46:27.702Z,994.97
2023-03-17T07:47:27.578Z,994.88
2023-03-17T07:48:27.888Z,994.85
2023-03-17T07:49:40.316Z,994.94
2023-03-17T07:50:29.745Z,994.86
2023-03-17T07:51:27.631Z,994.86
2023-03-17T07:52:27.585Z,994.92
2023-03-17T07:53:27.584Z,994.92
2023-03-17T07:54:27.544Z,994.97
2023-03-17T07:55:27.530Z,994.84
2023-03-17T07:56:27.520Z,994.84
2023-03-17T07:57:27.592Z,994.85
2023-03-17T07:58:27.547Z,994.76
2023-03-17T07:59:27.534Z,994.82
2023-03-17T08:00:27.573Z,994.82
2023-03-17T08:01:27.526Z,994.80
2023-03-17T08:02:27.602Z,994.70
2023-03-17T08:03:27.607Z,994.65
2023-03-17T08:04:27.509Z,994.58
2023-03-17T08:05:27.517Z,994.58
2023-03-17T08:06:27.464Z,994.64
2023-03-17T08:07:27.473Z,994.62
2023-03-17T08:08:27.512Z,994.57
2023-03-17T08:09:27.452Z,994.65
2023-03-17T08:10:27.450Z,994.59
2023-03-17T08:11:29.359Z,994.59
2023-03-17T08:12:28.412Z,994.56
2023-03-17T08:13:27.453Z,994.62
2023-03-17T08:14:27.437Z,994.59
2023-03-17T08:15:27.457Z,994.64
2023-03-17T08:16:27.414Z,994.65
2023-03-17T08:17:27.427Z,994.68
2023-03-17T08:18:27.383Z,994.64
2023-03-17T08:19:27.426Z,994.62
2023-03-17T08:20:27.368Z,994.62
2023-03-17T08:21:27.404Z,994.57
2023-03-17T08:22:27.347Z,994.52
2023-03-17T08:23:27.396Z,994.55
2023-03-17T08:24:27.341Z,994.46
2023-03-17T08:25:27.359Z,994.47
2023-03-17T08:26:27.403Z,994.49
2023-03-17T08:27:27.317Z,994.52
2023-03-17T08:28:27.328Z,994.54
2023-03-17T08:29:27.342Z,994.55
2023-03-17T08:30:27.435Z,994.51
2023-03-17T08:31:27.346Z,994.51
2023-03-17T08:32:27.406Z,994.46
2023-03-17T08:33:27.317Z,994.48
2023-03-17T08:34:27.297Z,994.48
2023-03-17T08:35:27.358Z,994.44
2023-03-17T08:36:27.256Z,994.44
2023-03-17T08:37:27.289Z,994.37
2023-03-17T08:38:27.251Z,994.37
2023-03-17T08:39:27.236Z,994.30
2023-03-17T08:40:27.248Z,994.29
2023-03-17T08:41:27.272Z,994.16
2023-03-17T08:42:27.256Z,994.13
2023-03-17T08:43:27.253Z,994.12
2023-03-17T08:44:27.237Z,994.14
2023-03-17T08:45:27.239Z,994.14
2023-03-17T08:46:27.283Z,994.05
2023-03-17T08:47:27.199Z,994.01
2023-03-17T08:48:27.209Z,993.99
2023-03-17T08:49:27.199Z,994.02
2023-03-17T08:50:27.209Z,993.93
2023-03-17T08:51:27.201Z,993.95
2023-03-17T08:52:27.145Z,993.96
2023-03-17T08:53:27.789Z,993.85
2023-03-17T08:54:27.151Z,993.93
2023-03-17T08:55:27.214Z,993.94
2023-03-17T08:56:27.158Z,993.99
2023-03-17T08:57:27.163Z,994.06
2023-03-17T08:58:27.120Z,994.00
2023-03-17T08:59:27.106Z,994.02
2023-03-17T09:00:27.153Z,994.01
2023-03-17T09:01:27.213Z,993.96
2023-03-17T09:02:27.117Z,994.05
2023-03-17T09:03:27.137Z,994.08
2023-03-17T09:04:27.108Z,994.02
2023-03-17T09:05:27.090Z,994.06
2023-03-17T09:06:27.111Z,994.07
2023-03-17T09:07:27.095Z,994.08
2023-03-17T09:08:27.101Z,993.96
2023-03-17T09:09:27.067Z,993.97
2023-03-17T09:10:27.046Z,993.96
2023-03-17T09:11:27.072Z,993.99
2023-03-17T09:12:27.063Z,993.97
2023-03-17T09:13:27.100Z,993.93
2023-03-17T09:14:27.054Z,993.98
2023-03-17T09:15:27.042Z,993.91
2023-03-17T09:16:27.189Z,993.93
2023-03-17T09:17:27.056Z,993.95
2023-03-17T09:18:27.012Z,993.89
2023-03-17T09:19:27.022Z,993.91
2023-03-17T09:20:27.050Z,993.94
2023-03-17T09:21:27.001Z,993.89
2023-03-17T09:22:27.780Z,993.90
2023-03-17T09:23:27.001Z,993.81
2023-03-17T09:24:26.986Z,993.91
2023-03-17T09:25:26.970Z,993.88
2023-03-17T09:26:26.949Z,993.89
2023-03-17T09:27:26.975Z,993.94
2023-03-17T09:28:26.925Z,993.91
2023-03-17T09:29:26.946Z,993.88
2023-03-17T09:30:26.990Z,993.79
2023-03-17T09:31:28.058Z,993.75
2023-03-17T09:32:27.994Z,993.85
2023-03-17T09:33:26.934Z,993.86
2023-03-17T09:34:26.881Z,993.75
2023-03-17T09:35:26.868Z,993.88
2023-03-17T09:36:26.915Z,993.78
2023-03-17T09:37:26.881Z,993.73
2023-03-17T09:38:26.859Z,993.75
2023-03-17T09:39:26.869Z,993.77
2023-03-17T09:40:28.518Z,993.73
2023-03-17T09:41:27.856Z,993.65
2023-03-17T09:42:26.883Z,993.70
2023-03-17T09:43:26.867Z,993.70
2023-03-17T09:44:26.862Z,993.69
2023-03-17T09:45:26.832Z,993.63
2023-03-17T09:46:26.822Z,993.65
2023-03-17T09:47:26.791Z,993.67
2023-03-17T09:48:26.788Z,993.66
2023-03-17T09:49:26.808Z,993.62
2023-03-17T09:50:26.775Z,993.65
2023-03-17T09:51:26.778Z,993.62
2023-03-17T09:52:26.817Z,993.60
2023-03-17T09:53:26.814Z,993.61
2023-03-17T09:54:26.760Z,993.63
2023-03-17T09:55:26.757Z,993.67
2023-03-17T09:56:26.741Z,993.67
2023-03-17T09:57:26.738Z,993.57
2023-03-17T09:58:26.725Z,993.52
2023-03-17T09:59:26.784Z,993.57
2023-03-17T10:00:26.772Z,993.56
2023-03-17T10:01:26.798Z,993.56
2023-03-17T10:02:26.707Z,993.57
2023-03-17T10:03:26.781Z,993.53
2023-03-17T10:04:26.702Z,993.58
2023-03-17T10:05:26.748Z,993.49
2023-03-17T10:06:26.662Z,993.52
2023-03-17T10:07:26.655Z,993.47
2023-03-17T10:08:31.757Z,993.49
2023-03-17T10:09:28.656Z,993.53
2023-03-17T10:10:26.642Z,993.50
2023-03-17T10:11:26.648Z,993.46
2023-03-17T10:12:26.606Z,993.37
2023-03-17T10:13:26.622Z,993.48
2023-03-17T10:14:26.653Z,993.40
2023-03-17T10:15:26.652Z,993.40
2023-03-17T10:16:26.669Z,993.41
2023-03-17T10:17:26.587Z,993.44
2023-03-17T10:18:26.577Z,993.37
2023-03-17T10:19:26.588Z,993.35
2023-03-17T10:20:26.600Z,993.37
2023-03-17T10:21:26.605Z,993.35
2023-03-17T10:22:26.593Z,993.33
2023-03-17T10:23:26.556Z,993.23
2023-03-17T10:24:26.526Z,993.22
2023-03-17T10:25:26.541Z,993.21
2023-03-17T10:26:26.558Z,993.25
2023-03-17T10:27:27.364Z,993.22
2023-03-17T10:28:26.520Z,993.26
2023-03-17T10:29:26.509Z,993.19
2023-03-17T10:30:26.551Z,993.18
2023-03-17T10:31:26.517Z,993.22
2023-03-17T10:32:26.551Z,993.19
2023-03-17T10:33:26.531Z,993.24
2023-03-17T10:34:26.465Z,993.20
2023-03-17T10:35:26.851Z,993.24
2023-03-17T10:36:26.458Z,993.28
2023-03-17T10:37:26.450Z,993.24
2023-03-17T10:38:26.464Z,993.23
2023-03-17T10:39:26.456Z,993.22
2023-03-17T10:40:26.448Z,993.11
2023-03-17T10:41:26.426Z,993.14
2023-03-17T10:42:26.463Z,993.07
2023-03-17T10:43:26.450Z,993.11
2023-03-17T10:44:26.441Z,993.05
2023-03-17T10:45:26.380Z,993.16
2023-03-17T10:46:26.465Z,993.21
2023-03-17T10:47:26.389Z,993.22
2023-03-17T10:48:26.386Z,993.13
2023-03-17T10:49:26.354Z,993.11
2023-03-17T10:50:26.368Z,993.17
2023-03-17T10:51:27.308Z,993.03
2023-03-17T10:52:26.346Z,993.14
2023-03-17T10:53:26.342Z,993.14
2023-03-17T10:54:26.313Z,993.08
2023-03-17T10:55:26.328Z,993.11
2023-03-17T10:56:26.309Z,993.07
2023-03-17T10:57:26.307Z,993.04
2023-03-17T10:58:26.289Z,993.09
2023-03-17T10:59:26.335Z,993.06
2023-03-17T11:00:26.285Z,993.00
2023-03-17T11:01:26.369Z,993.02
2023-03-17T11:02:26.291Z,993.08
2023-03-17T11:03:26.301Z,993.00
2023-03-17T11:04:26.264Z,993.07
2023-03-17T11:05:26.291Z,993.06
2023-03-17T11:06:26.279Z,992.98
2023-03-17T11:07:26.253Z,992.95
2023-03-17T11:08:26.241Z,992.97
2023-03-17T11:09:26.225Z,993.00
2023-03-17T11:10:26.213Z,992.98
2023-03-17T11:11:26.253Z,993.00
2023-03-17T11:12:26.227Z,992.98
2023-03-17T11:13:26.205Z,992.92
2023-03-17T11:14:26.249Z,993.07
2023-03-17T11:15:26.183Z,993.02
2023-03-17T11:16:26.210Z,993.04
2023-03-17T11:17:26.180Z,993.02
2023-03-17T11:18:26.149Z,993.09
2023-03-17T11:19:26.153Z,992.93
2023-03-17T11:20:26.152Z,992.95
2023-03-17T11:21:26.152Z,992.93
2023-03-17T11:22:26.175Z,992.89
2023-03-17T11:23:26.146Z,992.89
2023-03-17T11:24:26.129Z,992.82
2023-03-17T11:25:26.137Z,992.80
2023-03-17T11:26:26.176Z,992.85
2023-03-17T11:27:26.163Z,992.73
2023-03-17T11:28:26.119Z,992.75
2023-03-17T11:29:26.185Z,992.83
2023-03-17T11:30:26.129Z,992.80
2023-03-17T11:31:26.121Z,992.82
2023-03-17T11:32:26.232Z,992.81
2023-03-17T11:33:26.139Z,992.78
2023-03-17T11:34:26.075Z,992.79
2023-03-17T11:35:26.052Z,992.76
2023-03-17T11:36:26.054Z,992.75
2023-03-17T11:37:26.039Z,992.71
2023-03-17T11:38:26.194Z,992.66
2023-03-17T11:39:26.058Z,992.71
2023-03-17T11:40:26.111Z,992.71
2023-03-17T11:41:26.107Z,992.72
2023-03-17T11:42:26.011Z,992.70
2023-03-17T11:43:26.093Z,992.72
2023-03-17T11:44:26.019Z,992.69
2023-03-17T11:45:25.999Z,992.71
2023-03-17T11:46:26.081Z,992.73
2023-03-17T11:47:26.016Z,992.65
2023-03-17T11:48:25.977Z,992.69
2023-03-17T11:49:25.975Z,992.67
2023-03-17T11:50:25.962Z,992.53
2023-03-17T11:51:25.973Z,992.59
2023-03-17T11:52:25.973Z,992.53
2023-03-17T11:53:26.057Z,992.60
2023-03-17T11:54:25.946Z,992.62
2023-03-17T11:55:25.967Z,992.55
2023-03-17T11:56:26.271Z,992.63
2023-03-17T11:57:25.930Z,992.62
2023-03-17T11:58:25.924Z,992.67
2023-03-17T11:59:25.977Z,992.60
2023-03-17T12:00:25.891Z,992.65
2023-03-17T12:01:25.884Z,992.61
2023-03-17T12:02:25.894Z,992.57
2023-03-17T12:03:25.925Z,992.61
2023-03-17T12:04:25.985Z,992.59
2023-03-17T12:05:25.868Z,992.58
2023-03-17T12:06:25.868Z,992.66
2023-03-17T12:07:25.867Z,992.60
2023-03-17T12:08:25.847Z,992.58
2023-03-17T12:09:25.872Z,992.61
2023-03-17T12:10:25.866Z,992.54
2023-03-17T12:11:25.841Z,992.55
2023-03-17T12:12:25.866Z,992.43
2023-03-17T12:13:25.828Z,992.50
2023-03-17T12:14:25.811Z,992.44
2023-03-17T12:15:25.818Z,992.48
2023-03-17T12:16:25.822Z,992.61
2023-03-17T12:17:27.318Z,992.61
2023-03-17T12:18:26.814Z,992.61
2023-03-17T12:19:25.785Z,992.50
2023-03-17T12:20:25.818Z,992.58
2023-03-17T12:21:25.784Z,992.54
2023-03-17T12:22:25.810Z,992.55
2023-03-17T12:23:25.810Z,992.56
2023-03-17T12:24:25.780Z,992.49
2023-03-17T12:25:25.788Z,992.43
2023-03-17T12:26:25.764Z,992.53
2023-03-17T12:27:25.776Z,992.42
2023-03-17T12:28:25.776Z,992.46